createdAt,value
2023-03-04T00:02:24.674Z,31.50
2023-03-04T00:04:53.022Z,31.40
2023-03-04T00:07:21.188Z,29.10
2023-03-04T00:09:53.720Z,30.90
2023-03-04T00:12:22.865Z,28.70
2023-03-04T00:14:51.639Z,31.90
2023-03-04T00:17:25.572Z,30.10
2023-03-04T00:19:55.267Z,30.00
2023-03-04T00:22:24.117Z,27.70
2023-03-04T00:24:54.961Z,30.10
2023-03-04T00:27:23.945Z,28.70
2023-03-04T00:29:52.191Z,33.00
2023-03-04T00:32:21.241Z,32.30
2023-03-04T00:34:49.828Z,29.70
2023-03-04T00:37:17.997Z,30.40
2023-03-04T00:39:46.853Z,31.80
2023-03-04T00:42:16.815Z,32.80
2023-03-04T00:44:46.605Z,30.30
2023-03-04T00:47:14.962Z,31.20
2023-03-04T00:49:43.436Z,31.80
2023-03-04T00:52:11.680Z,29.80
2023-03-04T00:54:43.033Z,31.20
2023-03-04T00:57:11.373Z,30.70
2023-03-04T00:59:40.897Z,36.70
2023-03-04T01:02:11.427Z,28.70
2023-03-04T01:04:42.047Z,32.00
2023-03-04T01:07:11.454Z,30.40
2023-03-04T01:09:45.436Z,30.20
2023-03-04T01:12:14.256Z,29.30
2023-03-04T01:14:43.151Z,32.00
2023-03-04T01:17:17.559Z,28.50
2023-03-04T01:19:45.873Z,30.10
2023-03-04T01:22:16.786Z,31.40
2023-03-04T01:24:47.248Z,32.60
2023-03-04T01:27:16.106Z,34.70
2023-03-04T01:29:45.414Z,30.40
2023-03-04T01:32:13.681Z,31.90
2023-03-04T01:34:43.966Z,31.50
2023-03-04T01:37:15.904Z,30.20
2023-03-04T01:39:44.963Z,31.20
2023-03-04T01:42:19.098Z,29.70
2023-03-04T01:44:48.402Z,29.40
2023-03-04T01:47:19.166Z,31.10
2023-03-04T01:49:49.455Z,31.30
2023-03-04T01:52:18.211Z,33.80
2023-03-04T01:54:46.413Z,36.40
2023-03-04T01:57:23.086Z,32.40
2023-03-04T02:00:32.455Z,32.40
2023-03-04T02:03:07.314Z,33.20
2023-03-04T02:05:36.472Z,31.70
2023-03-04T02:08:05.341Z,32.10
2023-03-04T02:13:07.068Z,30.30
2023-03-04T02:15:35.726Z,31.70
2023-03-04T02:18:18.809Z,35.10
2023-03-04T02:21:13.733Z,33.50
2023-03-04T02:23:49.501Z,37.10
2023-03-04T02:26:21.870Z,32.90
2023-03-04T02:28:52.976Z,37.30
2023-03-04T02:31:28.849Z,35.50
2023-03-04T02:33:58.919Z,39.20
2023-03-04T02:36:29.044Z,34.70
2023-03-04T02:39:03.466Z,34.50
2023-03-04T02:41:32.306Z,32.70
2023-03-04T02:44:02.228Z,38.90
2023-03-04T02:46:31.394Z,34.80
2023-03-04T02:49:00.152Z,35.40
2023-03-04T02:51:29.738Z,37.00
2023-03-04T02:53:58.398Z,36.20
2023-03-04T02:56:26.928Z,35.20
2023-03-04T02:58:55.316Z,35.50
2023-03-04T03:01:29.893Z,38.60
2023-03-04T03:03:58.220Z,40.50
2023-03-04T03:06:27.125Z,42.70
2023-03-04T03:08:57.268Z,42.60
2023-03-04T03:11:26.784Z,40.20
2023-03-04T03:13:56.161Z,37.10
2023-03-04T03:16:30.593Z,37.50
2023-03-04T03:18:58.817Z,37.60
2023-03-04T03:21:27.041Z,39.70
2023-03-04T03:23:55.376Z,37.30
2023-03-04T03:26:23.598Z,36.40
2023-03-04T03:28:54.353Z,41.30
2023-03-04T03:31:23.380Z,43.50
2023-03-04T03:33:59.400Z,39.50
2023-03-04T03:36:28.692Z,37.80
2023-03-04T03:38:56.962Z,38.30
2023-03-04T03:41:25.203Z,41.30
2023-03-04T03:43:53.410Z,46.50
2023-03-04T03:46:21.670Z,41.50
2023-03-04T03:48:50.161Z,42.60
2023-03-04T03:51:26.530Z,44.50
2023-03-04T03:53:55.512Z,52.80
2023-03-04T03:56:23.911Z,56.20
2023-03-04T03:58:52.077Z,53.20
2023-03-04T04:01:20.306Z,47.70
2023-03-04T04:03:48.922Z,43.70
2023-03-04T04:06:17.454Z,40.30
2023-03-04T04:08:51.120Z,43.20
2023-03-04T04:11:19.279Z,45.80
2023-03-04T04:13:47.496Z,43.30
2023-03-04T04:16:16.447Z,40.20
2023-03-04T04:18:45.091Z,41.10
2023-03-04T04:21:17.576Z,42.40
2023-03-04T04:23:46.266Z,39.60
2023-03-04T04:26:19.157Z,39.70
2023-03-04T04:28:48.391Z,38.90
2023-03-04T04:31:16.888Z,44.90
2023-03-04T04:33:46.747Z,39.70
2023-03-04T04:36:15.541Z,40.30
2023-03-04T04:38:49.673Z,41.90
2023-03-04T04:41:23.154Z,42.40
2023-03-04T04:46:20.148Z,38.70
2023-03-04T04:48:48.337Z,39.00
2023-03-04T04:51:16.568Z,42.30
2023-03-04T04:53:44.993Z,40.30
2023-03-04T04:56:16.674Z,42.40
2023-03-04T04:58:45.511Z,39.40
2023-03-04T05:01:14.416Z,37.80
2023-03-04T05:03:44.894Z,41.90
2023-03-04T05:06:13.463Z,41.10
2023-03-04T05:08:41.693Z,36.20
2023-03-04T05:11:10.068Z,42.00
2023-03-04T05:13:40.284Z,42.70
2023-03-04T05:16:09.768Z,41.60
2023-03-04T05:18:38.123Z,40.30
2023-03-04T05:21:10.007Z,36.20
2023-03-04T05:23:40.127Z,36.90
2023-03-04T05:26:08.951Z,34.20
2023-03-04T05:28:37.387Z,38.00
2023-03-04T05:31:05.827Z,41.60
2023-03-04T05:33:35.231Z,39.10
2023-03-04T05:36:04.776Z,39.00
2023-03-04T05:38:32.998Z,37.20
2023-03-04T05:41:03.519Z,35.50
2023-03-04T05:43:38.475Z,37.60
2023-03-04T05:46:07.096Z,38.10
2023-03-04T05:48:35.289Z,38.70
2023-03-04T05:51:03.861Z,38.80
2023-03-04T05:53:32.525Z,37.10
2023-03-04T05:56:06.436Z,36.10
2023-03-04T05:58:35.150Z,34.80
2023-03-04T06:01:03.707Z,37.10
2023-03-04T06:03:32.144Z,36.90
2023-03-04T06:06:00.296Z,36.40
2023-03-04T06:08:29.882Z,39.50
2023-03-04T06:10:59.220Z,38.20
2023-03-04T06:13:34.032Z,39.30
2023-03-04T06:16:03.507Z,36.40
2023-03-04T06:18:33.783Z,37.20
2023-03-04T06:21:08.663Z,39.30
2023-03-04T06:23:37.869Z,37.70
2023-03-04T06:26:09.442Z,38.90
2023-03-04T06:28:38.723Z,37.00
2023-03-04T06:31:06.952Z,36.70
2023-03-04T06:33:35.582Z,39.30
2023-03-04T06:36:04.780Z,36.50
2023-03-04T06:38:32.990Z,39.60
2023-03-04T06:41:09.068Z,33.30
2023-03-04T06:43:37.645Z,36.10
2023-03-04T06:46:07.367Z,34.30
2023-03-04T06:48:36.641Z,35.90
2023-03-04T06:51:09.350Z,38.10
2023-03-04T06:53:39.626Z,33.50
2023-03-04T06:56:16.467Z,35.80
2023-03-04T06:58:46.259Z,35.40
2023-03-04T07:01:21.810Z,39.70
2023-03-04T07:03:50.460Z,38.60
2023-03-04T07:06:20.931Z,39.70
2023-03-04T07:08:55.938Z,39.50
2023-03-04T07:11:25.467Z,37.70
2023-03-04T07:13:53.759Z,37.70
2023-03-04T07:16:23.315Z,39.90
2023-03-04T07:18:51.984Z,41.10
2023-03-04T07:21:26.024Z,41.40
2023-03-04T07:23:54.197Z,40.50
2023-03-04T07:26:22.462Z,44.50
2023-03-04T07:28:53.060Z,42.60
2023-03-04T07:31:21.448Z,41.90
2023-03-04T07:33:50.996Z,42.40
2023-03-04T07:36:20.146Z,40.70
2023-03-04T07:38:49.333Z,37.70
2023-03-04T07:41:18.225Z,41.00
2023-03-04T07:43:46.906Z,38.80
2023-03-04T07:46:15.252Z,36.70
2023-03-04T07:48:43.887Z,40.40
2023-03-04T07:51:15.162Z,41.40
2023-03-04T07:53:46.401Z,38.30
2023-03-04T07:56:16.781Z,42.40
2023-03-04T07:58:45.481Z,38.90
2023-03-04T08:01:16.000Z,43.70
2023-03-04T08:03:44.553Z,41.10
2023-03-04T08:06:14.537Z,43.80
2023-03-04T08:08:48.169Z,42.80
2023-03-04T08:11:20.992Z,42.40
2023-03-04T08:16:19.133Z,42.30
2023-03-04T08:18:49.862Z,43.40
2023-03-04T08:21:19.569Z,44.30
2023-03-04T08:23:49.398Z,44.60
2023-03-04T08:26:20.723Z,44.90
2023-03-04T08:28:49.410Z,43.20
2023-03-04T08:31:19.998Z,52.20
2023-03-04T08:33:49.733Z,42.60
2023-03-04T08:36:17.950Z,41.90
2023-03-04T08:38:47.166Z,43.80
2023-03-04T08:41:16.975Z,41.80
2023-03-04T08:43:45.181Z,45.10
2023-03-04T08:46:13.425Z,45.70
2023-03-04T08:48:42.189Z,42.60
2023-03-04T08:51:13.328Z,42.00
2023-03-04T08:53:41.753Z,42.20
2023-03-04T08:56:10.593Z,39.80
2023-03-04T08:58:39.122Z,38.70
2023-03-04T09:01:10.031Z,40.00
2023-03-04T09:03:46.090Z,47.40
2023-03-04T09:06:15.818Z,37.90
2023-03-04T09:09:09.675Z,40.10
2023-03-04T09:11:41.981Z,39.80
2023-03-04T09:14:11.275Z,41.30
2023-03-04T09:16:40.068Z,38.30
2023-03-04T09:19:08.356Z,38.70
2023-03-04T09:21:38.417Z,40.20
2023-03-04T09:24:07.068Z,39.20
2023-03-04T09:26:35.494Z,39.50
2023-03-04T09:29:04.257Z,38.00
2023-03-04T09:31:34.274Z,36.40
2023-03-04T09:34:04.105Z,35.20
2023-03-04T09:36:33.365Z,38.20
2023-03-04T09:39:07.307Z,36.90
2023-03-04T09:41:50.409Z,39.10
2023-03-04T09:44:38.514Z,36.80
2023-03-04T09:47:11.678Z,36.40
2023-03-04T09:49:41.515Z,37.70
2023-03-04T09:52:28.169Z,37.10
2023-03-04T09:55:18.609Z,36.90
2023-03-04T09:57:53.364Z,36.30
2023-03-04T10:00:25.439Z,32.50
2023-03-04T10:03:06.327Z,39.90
2023-03-04T10:05:36.704Z,37.80
2023-03-04T10:08:28.582Z,38.70
2023-03-04T10:10:59.232Z,39.50
2023-03-04T10:13:40.823Z,38.00
2023-03-04T10:16:10.004Z,39.10
2023-03-04T10:18:41.360Z,41.30
2023-03-04T10:21:42.344Z,42.90
2023-03-04T10:24:15.325Z,43.20
2023-03-04T10:26:50.674Z,41.50
2023-03-04T10:29:21.225Z,38.60
2023-03-04T10:31:50.090Z,40.80
2023-03-04T10:34:18.961Z,38.40
2023-03-04T10:36:54.950Z,39.30
2023-03-04T10:39:39.657Z,44.90
2023-03-04T10:42:14.572Z,44.90
2023-03-04T10:44:56.959Z,43.20
2023-03-04T10:47:29.417Z,46.90
2023-03-04T10:50:00.971Z,43.50
2023-03-04T10:52:38.840Z,50.80
2023-03-04T10:55:17.160Z,45.80
2023-03-04T10:57:48.680Z,41.50
2023-03-04T11:00:32.233Z,41.70
2023-03-04T11:03:36.180Z,42.90
2023-03-04T11:06:24.646Z,37.30
2023-03-04T11:08:58.435Z,31.30
2023-03-04T11:11:48.411Z,30.70
2023-03-04T11:14:24.647Z,30.10
2023-03-04T11:17:01.061Z,31.30
2023-03-04T11:19:38.672Z,30.60
2023-03-04T11:22:07.691Z,28.90
2023-03-04T11:24:36.401Z,28.80
2023-03-04T11:27:50.518Z,29.30
2023-03-04T11:30:48.397Z,29.10
2023-03-04T11:33:29.535Z,32.50
2023-03-04T11:36:10.169Z,28.50
2023-03-04T11:38:47.985Z,30.80
2023-03-04T11:41:39.907Z,30.00
2023-03-04T11:44:09.025Z,26.40
2023-03-04T11:46:52.799Z,27.70
2023-03-04T11:50:00.553Z,27.60
2023-03-04T11:52:51.640Z,32.70
2023-03-04T11:55:22.604Z,25.80
2023-03-04T12:00:36.091Z,26.30
2023-03-04T12:03:42.485Z,25.80
2023-03-04T12:06:38.948Z,29.20
2023-03-04T12:09:31.697Z,27.30
2023-03-04T12:12:06.255Z,29.80
2023-03-04T12:14:59.206Z,32.20
2023-03-04T12:17:39.574Z,31.30
2023-03-04T12:20:40.200Z,29.70
2023-03-04T12:23:22.469Z,28.50
2023-03-04T12:25:59.616Z,31.30
2023-03-04T12:28:53.149Z,30.80
2023-03-04T12:31:24.418Z,31.90
2023-03-04T12:34:14.450Z,30.10
2023-03-04T12:37:17.886Z,26.80
2023-03-04T12:40:20.638Z,33.80
2023-03-04T12:43:04.143Z,30.10
2023-03-04T12:45:43.893Z,28.50
2023-03-04T12:49:02.184Z,31.20
2023-03-04T12:51:39.604Z,31.10
2023-03-04T12:54:24.142Z,32.00
2023-03-04T12:56:55.868Z,33.60
2023-03-04T12:59:24.293Z,32.00
2023-03-04T13:02:14.548Z,30.60
2023-03-04T13:05:04.928Z,27.90
2023-03-04T13:07:50.859Z,28.60
2023-03-04T13:10:23.580Z,30.00
2023-03-04T13:12:54.537Z,29.10
2023-03-04T13:15:43.303Z,31.10
2023-03-04T13:18:36.063Z,30.10
2023-03-04T13:21:11.909Z,33.90
2023-03-04T13:23:40.821Z,51.20
2023-03-04T13:26:32.218Z,33.00
2023-03-04T13:29:18.963Z,27.20
2023-03-04T13:32:00.809Z,28.50
2023-03-04T13:34:49.251Z,27.40
2023-03-04T13:37:35.084Z,30.40
2023-03-04T13:40:47.674Z,28.20
2023-03-04T13:43:28.363Z,29.00
2023-03-04T13:45:56.699Z,32.10
2023-03-04T13:48:36.505Z,30.00
2023-03-04T13:51:04.852Z,28.50
2023-03-04T13:53:44.810Z,29.10
2023-03-04T13:56:29.320Z,30.20
2023-03-04T13:59:19.319Z,30.50
2023-03-04T14:01:47.994Z,30.90
2023-03-04T14:04:22.790Z,31.60
2023-03-04T14:06:52.715Z,34.00
2023-03-04T14:09:27.332Z,31.50
2023-03-04T14:11:57.314Z,31.20
2023-03-04T14:14:31.430Z,27.80
2023-03-04T14:17:05.096Z,27.50
2023-03-04T14:19:38.608Z,31.10
2023-03-04T14:22:23.895Z,31.30
2023-03-04T14:25:23.128Z,30.00
2023-03-04T14:28:04.558Z,30.20
2023-03-04T14:30:42.846Z,30.90
2023-03-04T14:33:18.342Z,29.20
2023-03-04T14:35:49.705Z,28.20
2023-03-04T14:38:23.929Z,33.60
2023-03-04T14:40:56.983Z,27.90
2023-03-04T14:43:26.565Z,27.10
2023-03-04T14:45:56.524Z,28.00
2023-03-04T14:48:31.022Z,27.60
2023-03-04T14:51:30.271Z,31.20
2023-03-04T14:54:32.140Z,25.50
2023-03-04T14:57:21.674Z,26.20
2023-03-04T14:59:50.175Z,27.30
2023-03-04T15:02:35.338Z,28.50
2023-03-04T15:05:31.389Z,27.20
2023-03-04T15:08:07.029Z,27.40
2023-03-04T15:10:37.171Z,25.50
2023-03-04T15:13:07.573Z,26.40
2023-03-04T15:15:40.648Z,27.20
2023-03-04T15:18:21.220Z,24.50
2023-03-04T15:21:05.881Z,25.60
2023-03-04T15:23:34.151Z,26.40
2023-03-04T15:26:04.710Z,26.10
2023-03-04T15:28:37.775Z,25.20
2023-03-04T15:31:06.140Z,23.90
2023-03-04T15:33:39.316Z,24.90
2023-03-04T15:36:11.133Z,26.20
2023-03-04T15:38:48.714Z,25.60
2023-03-04T15:41:25.891Z,23.90
2023-03-04T15:43:54.866Z,25.80
2023-03-04T15:46:23.473Z,26.90
2023-03-04T15:48:52.723Z,24.60
2023-03-04T15:51:22.385Z,28.40
2023-03-04T15:53:55.968Z,26.20
2023-03-04T15:56:32.104Z,28.50
2023-03-04T15:59:14.943Z,29.50
2023-03-04T16:01:51.157Z,28.70
2023-03-04T16:04:20.398Z,26.00
2023-03-04T16:06:49.587Z,23.70
2023-03-04T16:09:20.092Z,26.80
2023-03-04T16:11:49.058Z,26.40
2023-03-04T16:14:19.084Z,27.10
2023-03-04T16:16:48.143Z,25.50
2023-03-04T16:19:19.941Z,20.60
2023-03-04T16:21:50.971Z,24.60
2023-03-04T16:24:25.062Z,26.00
2023-03-04T16:26:54.214Z,22.60
2023-03-04T16:29:24.420Z,24.40
2023-03-04T16:31:54.401Z,26.60
2023-03-04T16:34:22.860Z,24.10
2023-03-04T16:36:51.551Z,25.50
2023-03-04T16:39:25.915Z,22.70
2023-03-04T16:41:58.483Z,21.70
2023-03-04T16:44:27.274Z,25.80
2023-03-04T16:47:02.772Z,21.70
2023-03-04T16:49:32.337Z,21.50
2023-03-04T16:52:01.006Z,24.00
2023-03-04T16:54:31.961Z,23.80
2023-03-04T16:57:00.882Z,20.90
2023-03-04T16:59:29.970Z,22.10
2023-03-04T17:01:58.631Z,21.10
2023-03-04T17:04:29.401Z,21.70
2023-03-04T17:06:59.082Z,20.20
2023-03-04T17:09:27.676Z,23.10
2023-03-04T17:11:59.555Z,22.00
2023-03-04T17:14:31.039Z,21.00
2023-03-04T17:17:00.673Z,20.60
2023-03-04T17:19:29.847Z,20.70
2023-03-04T17:21:59.489Z,23.10
2023-03-04T17:24:28.005Z,20.60
2023-03-04T17:26:58.339Z,20.60
2023-03-04T17:29:26.734Z,22.40
2023-03-04T17:31:54.966Z,21.80
2023-03-04T17:34:23.230Z,23.50
2023-03-04T17:36:51.573Z,23.50
2023-03-04T17:39:20.021Z,22.50
2023-03-04T17:41:51.366Z,24.30
2023-03-04T17:44:24.778Z,27.20
2023-03-04T17:46:53.105Z,29.70
2023-03-04T17:49:21.693Z,27.80
2023-03-04T17:51:50.135Z,28.80
2023-03-04T17:54:18.647Z,28.00
2023-03-04T17:56:47.015Z,28.40
2023-03-04T17:59:16.130Z,25.80
2023-03-04T18:01:47.813Z,27.40
2023-03-04T18:04:16.874Z,26.70
2023-03-04T18:06:46.497Z,25.10
2023-03-04T18:09:14.669Z,25.10
2023-03-04T18:11:43.384Z,26.50
2023-03-04T18:14:13.079Z,27.50
2023-03-04T18:16:44.388Z,23.80
2023-03-04T18:19:13.806Z,25.00
2023-03-04T18:21:44.487Z,23.10
2023-03-04T18:24:12.921Z,23.40
2023-03-04T18:26:41.105Z,25.90
2023-03-04T18:29:10.865Z,22.70
2023-03-04T18:31:39.786Z,22.90
2023-03-04T18:34:08.052Z,23.00
2023-03-04T18:36:36.601Z,23.40
2023-03-04T18:39:07.586Z,22.30
2023-03-04T18:41:36.466Z,24.20
2023-03-04T18:44:06.054Z,25.10
2023-03-04T18:46:55.621Z,26.20
2023-03-04T18:49:24.269Z,25.40
2023-03-04T18:51:52.482Z,24.50
2023-03-04T18:54:21.229Z,24.70
2023-03-04T18:56:55.814Z,25.20
2023-03-04T18:59:31.503Z,23.90
2023-03-04T19:02:01.761Z,24.90
2023-03-04T19:04:30.111Z,23.00
2023-03-04T19:07:00.442Z,24.00
2023-03-04T19:09:28.891Z,23.80
2023-03-04T19:11:57.112Z,24.40
2023-03-04T19:14:25.678Z,25.20
2023-03-04T19:16:54.646Z,23.60
2023-03-04T19:19:23.010Z,27.10
2023-03-04T19:21:51.263Z,22.20
2023-03-04T19:24:19.992Z,25.10
2023-03-04T19:26:54.782Z,22.80
2023-03-04T19:29:23.157Z,24.90
2023-03-04T19:31:51.335Z,23.70
2023-03-04T19:34:19.717Z,24.30
2023-03-04T19:36:48.143Z,25.90
2023-03-04T19:39:18.645Z,25.20
2023-03-04T19:41:47.614Z,24.40
2023-03-04T19:44:17.447Z,23.00
2023-03-04T19:46:46.163Z,23.90
2023-03-04T19:49:14.473Z,24.10
2023-03-04T19:51:43.250Z,22.60
2023-03-04T19:54:11.567Z,24.20
2023-03-04T19:56:40.754Z,24.80
2023-03-04T19:59:09.250Z,23.70
2023-03-04T20:01:40.741Z,25.90
2023-03-04T20:04:13.862Z,23.40
2023-03-04T20:06:45.942Z,25.90
2023-03-04T20:09:14.528Z,23.80
2023-03-04T20:11:56.683Z,24.10
2023-03-04T20:14:28.202Z,23.30
2023-03-04T20:17:01.582Z,22.00
2023-03-04T20:19:30.432Z,24.40
2023-03-04T20:21:58.810Z,26.40
2023-03-04T20:24:27.555Z,24.40
2023-03-04T20:26:55.836Z,24.40
2023-03-04T20:29:26.926Z,25.30
2023-03-04T20:31:55.102Z,22.40
2023-03-04T20:34:25.606Z,25.90
2023-03-04T20:36:54.130Z,22.90
2023-03-04T20:39:29.182Z,25.20
2023-03-04T20:41:58.733Z,23.40
2023-03-04T20:47:01.908Z,23.40
2023-03-04T20:49:30.580Z,26.10
2023-03-04T20:52:06.429Z,24.70
2023-03-04T20:54:36.086Z,25.30
2023-03-04T20:57:08.104Z,27.30
2023-03-04T20:59:38.394Z,28.50
2023-03-04T21:02:14.573Z,27.10
2023-03-04T21:04:44.060Z,22.00
2023-03-04T21:07:12.388Z,20.50
2023-03-04T21:09:44.841Z,18.80
2023-03-04T21:12:14.613Z,19.50
2023-03-04T21:14:45.471Z,17.20
2023-03-04T21:17:14.310Z,15.50
2023-03-04T21:19:43.614Z,13.90
2023-03-04T21:22:16.569Z,10.60
2023-03-04T21:24:52.438Z,8.50
2023-03-04T21:27:22.273Z,10.10
2023-03-04T21:29:50.640Z,7.50
2023-03-04T21:32:25.793Z,4.80
2023-03-04T21:34:54.987Z,5.40
2023-03-04T21:37:25.160Z,4.80
2023-03-04T21:39:55.075Z,4.90
2023-03-04T21:42:23.753Z,4.90
2023-03-04T21:44:57.387Z,3.00
2023-03-04T21:47:26.606Z,4.30
2023-03-04T21:49:54.846Z,4.10
2023-03-04T21:52:23.101Z,5.30
2023-03-04T21:54:51.319Z,5.40
2023-03-04T21:57:19.733Z,4.30
2023-03-04T21:59:48.489Z,2.80
2023-03-04T22:02:21.345Z,2.90
2023-03-04T22:04:50.205Z,2.80
2023-03-04T22:07:19.150Z,2.80
2023-03-04T22:09:47.936Z,1.50
2023-03-04T22:12:19.707Z,2.50
2023-03-04T22:14:48.217Z,2.80
2023-03-04T22:17:16.609Z,2.80
2023-03-04T22:19:45.170Z,3.00
2023-03-04T22:22:13.396Z,4.30
2023-03-04T22:24:42.693Z,4.80
2023-03-04T22:27:10.888Z,6.20
2023-03-04T22:29:42.612Z,5.00
2023-03-04T22:32:10.987Z,4.90
2023-03-04T22:34:40.529Z,7.20
2023-03-04T22:37:09.115Z,5.50
2023-03-04T22:39:37.314Z,6.10
2023-03-04T22:42:05.745Z,4.90
2023-03-04T22:44:34.678Z,7.30
2023-03-04T22:47:04.269Z,7.20
2023-03-04T22:49:33.473Z,5.10
2023-03-04T22:52:07.424Z,4.00
2023-03-04T22:54:35.600Z,6.50
2023-03-04T22:57:03.853Z,6.20
2023-03-04T22:59:32.174Z,6.90
2023-03-04T23:02:04.955Z,5.80
2023-03-04T23:04:33.630Z,2.90
2023-03-04T23:07:02.032Z,4.00
2023-03-04T23:09:30.680Z,8.00
2023-03-04T23:11:58.877Z,8.10
2023-03-04T23:14:27.275Z,4.80
2023-03-04T23:16:56.306Z,5.00
2023-03-04T23:19:26.051Z,3.50
2023-03-04T23:21:57.297Z,3.90
2023-03-04T23:24:26.832Z,2.40
2023-03-04T23:26:55.121Z,2.20
2023-03-04T23:29:23.328Z,3.90
2023-03-04T23:31:51.870Z,3.00
2023-03-04T23:34:26.232Z,1.10
2023-03-04T23:36:54.455Z,3.30
2023-03-04T23:39:22.835Z,3.20
2023-03-04T23:41:51.136Z,4.50
2023-03-04T23:44:19.638Z,3.30
2023-03-04T23:46:47.844Z,2.70
2023-03-04T23:49:18.027Z,3.10
2023-03-04T23:51:46.404Z,2.10
2023-03-04T23:54:14.800Z,2.60
2023-03-04T23:56:43.433Z,1.90
2023-03-04T23:59:12.501Z,5.30
